createdAt,value
2022-08-24T00:00:37.729Z,92.91
2022-08-24T00:02:11.879Z,93.22
2022-08-24T00:03:45.786Z,92.71
2022-08-24T00:05:20.700Z,92.81
2022-08-24T00:06:53.096Z,92.56
2022-08-24T00:08:25.573Z,92.64
2022-08-24T00:09:58.131Z,92.67
2022-08-24T00:11:30.266Z,92.58
2022-08-24T00:13:02.433Z,92.26
2022-08-24T00:14:34.675Z,92.32
2022-08-24T00:16:08.518Z,92.33
2022-08-24T00:17:41.148Z,92.40
2022-08-24T00:19:13.409Z,92.05
2022-08-24T00:20:46.009Z,92.35
2022-08-24T00:22:18.211Z,91.83
2022-08-24T00:23:50.320Z,91.55
2022-08-24T00:25:22.424Z,91.65
2022-08-24T00:26:55.070Z,91.49
2022-08-24T00:28:27.217Z,91.44
2022-08-24T00:29:59.247Z,91.50
2022-08-24T02:53:30.377Z,92.03
2022-08-24T02:55:02.477Z,92.24
2022-08-24T02:56:34.833Z,92.05
2022-08-24T02:58:07.365Z,91.55
2022-08-24T02:59:40.134Z,91.49
2022-08-24T03:01:13.623Z,91.64
2022-08-24T03:02:50.319Z,91.67
2022-08-24T03:04:22.903Z,91.66
2022-08-24T03:05:54.966Z,91.41
2022-08-24T03:07:26.997Z,91.75
2022-08-24T03:08:59.013Z,91.77
2022-08-24T03:10:31.365Z,91.98
2022-08-24T03:12:04.238Z,92.24
2022-08-24T03:47:15.422Z,91.88
2022-08-24T03:48:49.049Z,91.64
2022-08-24T03:50:21.473Z,92.02
2022-08-24T03:51:53.718Z,92.04
2022-08-24T03:53:25.929Z,91.85
2022-08-24T03:54:58.018Z,91.86
2022-08-24T05:13:58.975Z,94.01
2022-08-24T05:15:31.728Z,93.87
2022-08-24T05:17:04.018Z,93.83
2022-08-24T05:18:36.226Z,93.72
2022-08-24T05:20:09.749Z,93.56
2022-08-24T05:21:44.692Z,93.72
2022-08-24T05:23:16.930Z,93.52
2022-08-24T05:24:49.304Z,93.35
2022-08-24T05:26:25.969Z,93.52
2022-08-24T05:27:58.606Z,93.48
2022-08-24T05:29:34.038Z,93.24
2022-08-24T05:31:13.495Z,93.37
2022-08-24T05:32:45.733Z,93.57
2022-08-24T05:34:19.019Z,93.52
2022-08-24T05:35:51.005Z,92.94
2022-08-24T05:37:23.066Z,93.31
2022-08-24T05:38:57.433Z,92.48
2022-08-24T05:40:33.313Z,92.30
2022-08-24T05:42:06.720Z,92.38
2022-08-24T05:43:39.799Z,92.11
2022-08-24T05:45:13.091Z,92.33
2022-08-24T05:46:45.363Z,91.68
2022-08-24T05:48:17.648Z,91.86
2022-08-24T05:49:53.452Z,92.02
2022-08-24T05:51:25.794Z,91.43
2022-08-24T05:52:57.988Z,91.12
2022-08-24T05:54:30.164Z,91.10
2022-08-24T05:56:07.143Z,90.64
2022-08-24T05:57:39.324Z,90.57
2022-08-24T05:59:11.875Z,90.59
2022-08-24T06:00:47.199Z,90.72
2022-08-24T06:02:20.457Z,90.94
2022-08-24T06:03:52.992Z,90.64
2022-08-24T06:05:25.486Z,91.09
2022-08-24T06:06:57.988Z,91.10
2022-08-24T06:08:31.568Z,91.34
2022-08-24T06:10:32.794Z,91.40
2022-08-24T06:11:56.391Z,91.45
2022-08-24T06:13:29.357Z,90.98
2022-08-24T06:15:01.473Z,91.14
2022-08-24T06:16:36.653Z,90.68
2022-08-24T06:18:09.164Z,89.95
2022-08-24T06:19:41.522Z,89.55
2022-08-24T06:21:17.533Z,89.80
2022-08-24T06:22:50.886Z,89.52
2022-08-24T06:24:46.556Z,89.52
2022-08-24T06:26:39.033Z,89.54
2022-08-24T06:28:11.294Z,89.85
2022-08-24T06:29:43.339Z,89.51
2022-08-24T06:31:16.259Z,89.67
2022-08-24T06:32:48.419Z,89.56
2022-08-24T06:34:21.038Z,89.91
2022-08-24T06:35:53.563Z,89.46
2022-08-24T06:37:29.336Z,89.25
2022-08-24T06:39:02.682Z,89.61
2022-08-24T06:40:34.889Z,89.63
2022-08-24T06:42:07.376Z,89.97
2022-08-24T06:43:39.670Z,89.54
2022-08-24T06:45:12.458Z,89.23
2022-08-24T06:46:44.926Z,88.17
2022-08-24T06:48:17.701Z,87.61
2022-08-24T06:49:49.807Z,86.62
2022-08-24T06:51:24.008Z,86.76
2022-08-24T06:52:56.164Z,87.35
2022-08-24T06:54:28.605Z,88.02
2022-08-24T06:56:01.453Z,87.33
2022-08-24T06:57:33.513Z,87.52
2022-08-24T06:59:06.300Z,87.14
2022-08-24T07:02:13.328Z,86.23
2022-08-24T07:03:45.976Z,85.66
2022-08-24T07:05:18.547Z,84.62
2022-08-24T07:06:51.186Z,84.31
2022-08-24T07:08:23.680Z,83.43
2022-08-24T07:09:55.887Z,83.29
2022-08-24T07:11:28.250Z,82.65
2022-08-24T07:13:00.750Z,83.30
2022-08-24T07:14:32.934Z,83.61
2022-08-24T07:16:05.367Z,83.69
2022-08-24T07:17:37.727Z,83.36
2022-08-24T07:19:09.761Z,83.14
2022-08-24T07:20:43.342Z,82.91
2022-08-24T07:24:01.436Z,81.68
2022-08-24T07:25:34.382Z,82.15
2022-08-24T07:27:07.394Z,81.85
2022-08-24T07:28:40.692Z,81.53
2022-08-24T07:30:28.020Z,81.13
2022-08-24T07:32:01.832Z,81.58
2022-08-24T07:33:34.259Z,81.53
2022-08-24T07:35:07.155Z,81.32
2022-08-24T07:36:44.565Z,81.46
2022-08-24T07:38:17.344Z,81.49
2022-08-24T07:39:49.587Z,81.43
2022-08-24T07:43:18.329Z,81.77
2022-08-24T07:44:50.981Z,81.15
2022-08-24T07:46:24.781Z,81.33
2022-08-24T07:48:05.171Z,80.88
2022-08-24T07:49:39.637Z,81.18
2022-08-24T07:51:14.668Z,81.79
2022-08-24T07:52:47.591Z,82.65
2022-08-24T07:54:21.184Z,82.43
2022-08-24T07:55:55.646Z,82.66
2022-08-24T07:57:28.117Z,83.15
2022-08-24T07:59:00.765Z,82.48
2022-08-24T08:00:33.293Z,82.34
2022-08-24T08:02:06.198Z,82.08
2022-08-24T08:03:38.686Z,82.17
2022-08-24T08:05:11.085Z,82.27
2022-08-24T08:06:43.425Z,82.23
2022-08-24T08:08:16.299Z,82.27
2022-08-24T08:09:49.941Z,82.20
2022-08-24T08:11:22.259Z,83.66
2022-08-24T08:12:54.306Z,83.45
2022-08-24T08:14:26.814Z,82.81
2022-08-24T08:16:00.193Z,82.97
2022-08-24T08:17:33.246Z,83.10
2022-08-24T08:19:12.995Z,83.68
2022-08-24T08:20:45.270Z,83.83
2022-08-24T08:22:35.994Z,84.08
2022-08-24T08:24:20.504Z,84.52
2022-08-24T08:25:55.103Z,85.11
2022-08-24T08:27:28.064Z,85.28
2022-08-24T08:29:00.511Z,86.12
2022-08-24T08:30:33.404Z,86.05
2022-08-24T08:32:06.016Z,86.38
2022-08-24T08:33:38.492Z,86.69
2022-08-24T08:35:11.141Z,86.89
2022-08-24T08:36:44.219Z,86.50
2022-08-24T08:38:16.908Z,87.08
2022-08-24T08:39:49.256Z,87.12
2022-08-24T08:41:27.398Z,87.13
2022-08-24T08:43:07.716Z,87.44
2022-08-24T08:44:58.737Z,86.74
2022-08-24T08:46:58.260Z,86.01
2022-08-24T08:48:40.521Z,85.79
2022-08-24T08:50:19.435Z,86.39
2022-08-24T08:52:25.165Z,85.91
2022-08-24T08:54:15.735Z,85.54
2022-08-24T08:56:04.377Z,84.43
2022-08-24T08:57:47.545Z,84.67
2022-08-24T08:59:38.204Z,84.56
2022-08-24T09:01:46.535Z,84.35
2022-08-24T09:03:40.667Z,84.33
2022-08-24T09:05:28.026Z,84.37
2022-08-24T09:07:09.870Z,84.86
2022-08-24T09:08:51.878Z,83.33
2022-08-24T09:10:33.006Z,83.65
2022-08-24T09:12:20.881Z,82.97
2022-08-24T09:14:07.583Z,82.25
2022-08-24T09:16:10.716Z,83.56
2022-08-24T09:18:14.335Z,82.18
2022-08-24T09:20:07.894Z,83.43
2022-08-24T09:21:54.294Z,83.59
2022-08-24T09:23:49.970Z,84.05
2022-08-24T09:25:29.899Z,83.53
2022-08-24T09:27:23.217Z,84.24
2022-08-24T09:29:12.484Z,83.05
2022-08-24T09:31:24.119Z,83.90
2022-08-24T09:33:15.847Z,84.28
2022-08-24T09:35:26.645Z,83.97
2022-08-24T09:37:12.872Z,84.16
2022-08-24T09:38:52.392Z,83.37
2022-08-24T09:41:01.864Z,82.34
2022-08-24T09:43:11.098Z,83.33
2022-08-24T09:45:05.983Z,82.40
2022-08-24T09:46:49.676Z,83.36
2022-08-24T09:48:27.636Z,82.47
2022-08-24T09:50:21.330Z,83.23
2022-08-24T09:52:09.581Z,83.15
2022-08-24T09:53:55.301Z,82.75
2022-08-24T09:55:45.622Z,81.65
2022-08-24T09:57:59.352Z,81.43
2022-08-24T09:59:56.143Z,81.39
2022-08-24T10:01:37.054Z,80.35
2022-08-24T10:03:16.304Z,81.63
2022-08-24T10:05:02.593Z,80.72
2022-08-24T10:06:46.535Z,80.49
2022-08-24T10:08:49.236Z,80.33
2022-08-24T10:10:40.117Z,78.43
2022-08-24T10:12:52.908Z,79.31
2022-08-24T10:14:56.535Z,79.82
2022-08-24T10:16:40.885Z,80.52
2022-08-24T10:18:50.851Z,80.36
2022-08-24T10:20:26.839Z,80.49
2022-08-24T10:22:08.361Z,79.42
2022-08-24T10:24:02.293Z,79.20
2022-08-24T10:25:47.419Z,79.26
2022-08-24T10:27:43.936Z,79.98
2022-08-24T10:29:49.989Z,79.55
2022-08-24T10:31:54.686Z,78.87
2022-08-24T10:33:29.929Z,79.86
2022-08-24T10:35:14.221Z,80.31
2022-08-24T10:37:14.244Z,79.85
2022-08-24T10:39:28.361Z,80.18
2022-08-24T10:41:39.316Z,79.77
2022-08-24T10:43:40.699Z,78.79
2022-08-24T10:45:18.034Z,77.05
2022-08-24T10:46:58.482Z,78.09
2022-08-24T10:48:33.263Z,78.57
2022-08-24T10:50:45.401Z,79.12
2022-08-24T10:52:55.852Z,79.05
2022-08-24T10:54:28.316Z,78.93
2022-08-24T10:56:16.947Z,79.03
2022-08-24T10:58:08.021Z,78.21
2022-08-24T10:59:51.691Z,78.33
2022-08-24T11:01:32.387Z,79.34
2022-08-24T11:03:14.692Z,78.85
2022-08-24T11:05:00.025Z,79.31
2022-08-24T11:06:37.330Z,78.90
2022-08-24T11:08:19.056Z,75.60
2022-08-24T11:09:56.303Z,73.73
2022-08-24T11:11:40.442Z,70.22
2022-08-24T11:13:19.000Z,70.84
2022-08-24T11:14:51.882Z,71.57
2022-08-24T11:16:33.253Z,70.32
2022-08-24T11:18:05.935Z,69.00
2022-08-24T11:19:38.376Z,69.71
2022-08-24T11:21:46.816Z,70.01
2022-08-24T11:23:25.527Z,70.72
2022-08-24T11:25:35.424Z,71.41
2022-08-24T11:27:25.386Z,70.37
2022-08-24T11:29:01.862Z,70.56
2022-08-24T11:30:39.767Z,69.47
2022-08-24T11:32:26.931Z,68.45
2022-08-24T11:34:11.586Z,68.34
2022-08-24T11:35:43.736Z,67.64
2022-08-24T11:37:16.404Z,69.10
2022-08-24T11:44:31.816Z,68.51
2022-08-24T11:46:32.013Z,71.24
2022-08-24T11:48:26.855Z,72.09
2022-08-24T11:50:27.639Z,72.05
2022-08-24T11:52:05.990Z,71.87
2022-08-24T11:53:50.728Z,69.21
2022-08-24T11:55:47.044Z,68.90
2022-08-24T11:57:27.068Z,69.07
2022-08-24T11:59:25.872Z,71.91
2022-08-24T12:01:07.721Z,68.91
2022-08-24T12:02:49.857Z,69.14
2022-08-24T12:04:22.501Z,68.49
2022-08-24T12:06:04.283Z,68.26
2022-08-24T12:07:59.554Z,68.83
2022-08-24T12:09:57.933Z,71.57
2022-08-24T12:12:14.981Z,71.48
2022-08-24T12:14:01.615Z,71.33
2022-08-24T12:15:43.534Z,71.41
2022-08-24T12:17:27.530Z,70.71
2022-08-24T12:19:08.970Z,72.37
2022-08-24T12:20:48.388Z,71.19
2022-08-24T12:22:21.606Z,71.15
2022-08-24T12:24:01.133Z,72.89
2022-08-24T12:25:52.974Z,73.11
2022-08-24T12:27:33.623Z,74.61
2022-08-24T12:29:16.662Z,74.37
2022-08-24T12:30:49.776Z,74.42
2022-08-24T13:08:42.305Z,69.06
2022-08-24T13:16:34.404Z,70.20
2022-08-24T13:18:10.351Z,70.12
2022-08-24T13:19:45.740Z,69.56
2022-08-24T13:21:37.616Z,69.00
2022-08-24T13:23:12.733Z,69.39
2022-08-24T13:24:59.376Z,69.66
2022-08-24T13:26:32.892Z,69.37
2022-08-24T13:28:09.867Z,70.69
2022-08-24T13:29:45.940Z,70.90
2022-08-24T13:31:36.481Z,72.71
2022-08-24T13:33:34.577Z,73.11
2022-08-24T13:35:49.008Z,71.46
2022-08-24T13:39:15.709Z,70.29
2022-08-24T13:40:52.095Z,71.36
2022-08-24T13:42:36.501Z,72.11
2022-08-24T13:44:49.460Z,73.89
2022-08-24T13:46:25.299Z,72.35
2022-08-24T13:48:00.712Z,70.01
2022-08-24T13:50:02.215Z,68.31
2022-08-24T13:51:46.184Z,67.88
2022-08-24T13:53:37.222Z,68.46
2022-08-24T13:56:04.724Z,69.04
2022-08-24T13:57:46.711Z,67.69
2022-08-24T13:59:43.861Z,70.31
2022-08-24T14:01:34.508Z,69.13
2022-08-24T14:03:24.711Z,70.83
2022-08-24T14:05:04.623Z,70.17
2022-08-24T14:06:42.647Z,70.31
2022-08-24T14:08:26.247Z,69.30
2022-08-24T14:10:04.496Z,70.54
2022-08-24T14:11:45.541Z,70.25
2022-08-24T14:13:50.356Z,71.26
2022-08-24T14:15:51.535Z,70.39
2022-08-24T14:17:53.783Z,71.06
2022-08-24T14:20:05.817Z,69.63
2022-08-24T14:21:46.085Z,69.21
2022-08-24T14:23:36.824Z,70.62
2022-08-24T14:25:15.143Z,70.89
2022-08-24T14:26:52.324Z,71.43
2022-08-24T14:28:25.223Z,70.43
2022-08-24T14:30:20.090Z,70.59
2022-08-24T14:32:00.012Z,70.79
2022-08-24T14:33:50.942Z,71.38
2022-08-24T14:35:47.551Z,71.95
2022-08-24T14:37:41.217Z,71.49
2022-08-24T14:39:42.175Z,71.10
2022-08-24T14:41:47.557Z,72.05
2022-08-24T14:43:31.422Z,71.87
2022-08-24T14:45:10.767Z,71.25
2022-08-24T14:47:05.695Z,71.99
2022-08-24T14:48:54.905Z,72.24
2022-08-24T14:50:36.845Z,71.76
2022-08-24T14:52:22.262Z,72.26
2022-08-24T14:54:04.248Z,72.04
2022-08-24T14:55:48.059Z,71.80
2022-08-24T14:57:45.252Z,72.14
2022-08-24T14:59:36.087Z,72.11
2022-08-24T15:01:39.410Z,71.33
2022-08-24T15:03:52.599Z,70.01
2022-08-24T15:05:41.322Z,69.80
2022-08-24T15:07:30.807Z,69.54
2022-08-24T15:09:12.073Z,70.05
2022-08-24T15:10:47.108Z,70.92
2022-08-24T15:12:38.248Z,70.68
2022-08-24T15:14:30.068Z,70.64
2022-08-24T15:16:17.500Z,70.72
2022-08-24T15:18:09.669Z,68.65
2022-08-24T15:19:48.167Z,68.26
2022-08-24T15:21:44.655Z,67.76
2022-08-24T15:23:26.025Z,67.18
2022-08-24T15:25:07.697Z,68.85
2022-08-24T15:26:51.053Z,68.46
2022-08-24T15:28:29.889Z,68.24
2022-08-24T15:30:06.199Z,69.05
2022-08-24T15:31:39.446Z,68.91
2022-08-24T15:33:19.374Z,70.05
2022-08-24T15:34:58.581Z,69.53
2022-08-24T15:36:33.503Z,69.78
2022-08-24T15:38:25.196Z,70.30
2022-08-24T15:40:02.524Z,71.24
2022-08-24T15:41:39.243Z,71.14
2022-08-24T15:43:12.303Z,70.79
2022-08-24T15:44:48.038Z,71.58
2022-08-24T15:46:42.336Z,71.39
2022-08-24T15:48:18.193Z,71.50
2022-08-24T15:50:00.455Z,72.12
2022-08-24T15:51:47.135Z,72.85
2022-08-24T15:53:29.972Z,72.31
2022-08-24T15:55:04.772Z,72.32
2022-08-24T15:56:45.169Z,70.90
2022-08-24T15:58:27.348Z,69.85
2022-08-24T16:00:40.510Z,68.03
2022-08-24T16:02:31.289Z,69.03
2022-08-24T16:04:06.156Z,67.84
2022-08-24T16:05:38.780Z,68.32
2022-08-24T16:07:23.773Z,69.06
2022-08-24T16:09:05.567Z,68.77
2022-08-24T16:10:50.976Z,68.34
2022-08-24T16:12:23.702Z,67.73
2022-08-24T16:13:56.071Z,68.15
2022-08-24T16:15:28.205Z,68.08
2022-08-24T16:17:02.408Z,68.42
2022-08-24T16:18:46.584Z,68.29
2022-08-24T16:20:24.647Z,68.53
2022-08-24T16:22:03.648Z,68.70
2022-08-24T16:23:36.488Z,69.02
2022-08-24T16:25:23.892Z,68.95
2022-08-24T16:27:15.283Z,69.04
2022-08-24T16:28:48.245Z,68.81
2022-08-24T16:30:23.413Z,68.89
2022-08-24T16:32:05.398Z,68.45
2022-08-24T16:33:44.254Z,68.69
2022-08-24T16:35:21.202Z,68.59
2022-08-24T16:36:53.568Z,68.78
2022-08-24T16:38:30.144Z,68.65
2022-08-24T16:40:02.450Z,69.07
2022-08-24T16:41:39.087Z,69.06
2022-08-24T16:43:11.376Z,70.08
2022-08-24T16:44:44.767Z,70.21
2022-08-24T16:46:22.682Z,70.54
2022-08-24T16:47:54.940Z,71.50
2022-08-24T16:49:27.027Z,72.25
2022-08-24T16:50:59.662Z,72.93
2022-08-24T16:52:31.994Z,73.96
2022-08-24T16:54:04.454Z,74.40
2022-08-24T16:55:36.650Z,74.87
2022-08-24T16:57:17.616Z,75.34
2022-08-24T16:58:49.728Z,76.72
2022-08-24T17:00:22.582Z,76.63
2022-08-24T17:01:54.873Z,76.05
2022-08-24T17:03:27.216Z,76.27
2022-08-24T17:04:59.486Z,75.34
2022-08-24T17:06:31.849Z,75.08
2022-08-24T17:08:04.741Z,74.45
2022-08-24T17:09:42.007Z,73.87
2022-08-24T17:11:15.047Z,74.79
2022-08-24T17:12:47.083Z,75.56
2022-08-24T17:15:53.919Z,77.24
2022-08-24T17:17:26.331Z,77.67
2022-08-24T17:18:59.271Z,77.99
2022-08-24T17:20:31.902Z,78.08
2022-08-24T17:22:05.372Z,78.46
2022-08-24T17:23:37.790Z,78.68
2022-08-24T17:25:09.986Z,78.44
2022-08-24T17:26:45.660Z,78.71
2022-08-24T17:28:20.808Z,79.17
2022-08-24T17:29:53.437Z,79.66
2022-08-24T17:31:29.618Z,79.64
2022-08-24T17:33:03.948Z,79.42
2022-08-24T17:34:36.260Z,80.19
2022-08-24T17:36:15.589Z,80.08
2022-08-24T17:37:50.207Z,80.47
2022-08-24T17:39:26.660Z,80.41
2022-08-24T17:41:01.345Z,80.70
2022-08-24T17:42:50.364Z,80.64
2022-08-24T17:44:26.683Z,80.82
2022-08-24T17:45:59.816Z,81.44
2022-08-24T17:47:32.557Z,81.45
2022-08-24T17:49:05.688Z,81.90
2022-08-24T17:50:37.858Z,82.02
2022-08-24T17:52:10.104Z,82.24
2022-08-24T17:53:42.458Z,82.02
2022-08-24T17:55:15.498Z,82.02
2022-08-24T17:56:51.326Z,82.56
2022-08-24T17:58:24.660Z,82.28
2022-08-24T17:59:57.554Z,82.74
2022-08-24T18:01:30.366Z,82.99
2022-08-24T18:03:02.706Z,82.94
2022-08-24T18:04:36.312Z,83.24
2022-08-24T18:06:08.697Z,83.28
2022-08-24T18:07:52.979Z,83.21
2022-08-24T18:09:35.328Z,83.51
2022-08-24T18:11:09.301Z,83.69
2022-08-24T18:12:41.574Z,83.84
2022-08-24T18:14:13.951Z,84.20
2022-08-24T18:15:46.619Z,84.09
2022-08-24T18:17:22.866Z,84.31
2022-08-24T18:18:55.620Z,84.32
2022-08-24T18:20:31.644Z,84.52
2022-08-24T18:22:05.144Z,84.92
2022-08-24T18:23:43.629Z,84.80
2022-08-24T18:25:18.163Z,84.98
2022-08-24T18:26:50.688Z,84.55
2022-08-24T18:28:23.658Z,84.73
2022-08-24T18:29:59.541Z,83.99
2022-08-24T18:31:36.008Z,84.83
2022-08-24T18:33:08.639Z,84.73
2022-08-24T18:34:41.387Z,84.63
2022-08-24T18:36:13.575Z,84.68
2022-08-24T18:37:46.092Z,85.13
2022-08-24T18:39:19.380Z,85.20
2022-08-24T18:40:52.716Z,85.42
2022-08-24T18:42:26.424Z,85.54
2022-08-24T18:43:59.733Z,85.62
2022-08-24T18:45:33.785Z,85.97
2022-08-24T18:47:06.890Z,85.21
2022-08-24T18:48:39.120Z,85.53
2022-08-24T18:50:12.074Z,86.00
2022-08-24T18:51:49.585Z,85.78
2022-08-24T18:53:24.466Z,86.04
2022-08-24T18:54:57.092Z,85.75
2022-08-24T18:56:29.344Z,86.15
2022-08-24T18:58:01.652Z,86.10
2022-08-24T18:59:35.799Z,85.88
2022-08-24T19:01:13.366Z,85.56
2022-08-24T19:02:46.030Z,85.83
2022-08-24T19:04:18.533Z,85.88
2022-08-24T19:05:56.093Z,86.02
2022-08-24T19:07:30.286Z,86.18
2022-08-24T19:09:02.297Z,86.31
2022-08-24T19:10:37.339Z,85.96
2022-08-24T19:12:10.002Z,86.50
2022-08-24T19:13:42.224Z,86.33
2022-08-24T19:15:29.188Z,86.43
2022-08-24T19:17:08.266Z,86.34
2022-08-24T19:18:40.504Z,87.16
2022-08-24T19:20:13.307Z,86.87
2022-08-24T19:21:45.661Z,86.66
2022-08-24T19:23:23.938Z,87.00
2022-08-24T19:24:56.544Z,87.36
2022-08-24T19:26:29.951Z,86.71
2022-08-24T19:28:02.287Z,87.08
2022-08-24T19:30:03.114Z,87.87
2022-08-24T19:31:29.099Z,87.62
2022-08-24T19:33:02.448Z,87.32
2022-08-24T19:34:34.825Z,87.62
2022-08-24T19:36:07.546Z,87.53
2022-08-24T19:37:40.264Z,87.84
2022-08-24T19:39:12.602Z,87.58
2022-08-24T19:40:49.874Z,87.58
2022-08-24T19:42:22.477Z,87.87
2022-08-24T19:44:23.398Z,87.91
2022-08-24T19:46:03.473Z,87.56
2022-08-24T19:47:35.987Z,87.68
2022-08-24T19:49:08.687Z,87.86
2022-08-24T19:50:41.237Z,87.63
2022-08-24T19:52:14.078Z,88.12
2022-08-24T19:53:46.545Z,87.98
2022-08-24T19:55:18.630Z,88.00
2022-08-24T19:56:53.383Z,87.91
2022-08-24T19:58:39.372Z,87.72
2022-08-24T20:00:29.924Z,87.91
2022-08-24T20:02:02.165Z,87.97
2022-08-24T20:03:34.511Z,88.18
2022-08-24T20:05:07.026Z,88.50
2022-08-24T20:06:41.210Z,88.23
2022-08-24T20:08:14.504Z,88.30
2022-08-24T20:09:46.520Z,88.68
2022-08-24T20:11:19.393Z,88.42
2022-08-24T20:12:52.326Z,88.58
2022-08-24T20:14:25.134Z,88.71
2022-08-24T20:15:58.219Z,88.61
2022-08-24T20:17:30.695Z,88.96
2022-08-24T20:19:04.056Z,88.90
2022-08-24T20:20:36.559Z,88.59
2022-08-24T20:22:13.244Z,88.96
2022-08-24T20:23:46.023Z,88.49
2022-08-24T20:25:19.042Z,88.78
2022-08-24T20:26:51.703Z,88.37
2022-08-24T20:28:29.065Z,88.30
2022-08-24T20:30:01.819Z,88.28
2022-08-24T20:31:35.233Z,88.26
2022-08-24T20:33:15.170Z,88.50
2022-08-24T20:34:47.335Z,88.63
2022-08-24T20:36:25.320Z,88.57
2022-08-24T20:37:57.501Z,88.42
2022-08-24T20:39:29.505Z,88.64
2022-08-24T20:41:02.399Z,88.53
2022-08-24T20:42:34.687Z,88.83
2022-08-24T20:44:09.914Z,88.92
2022-08-24T20:45:42.566Z,88.25
2022-08-24T20:47:15.607Z,88.36
2022-08-24T20:48:55.696Z,88.82
2022-08-24T20:50:29.925Z,88.79
2022-08-24T20:52:01.946Z,88.55
2022-08-24T20:53:35.766Z,88.81
2022-08-24T20:55:08.268Z,88.71
2022-08-24T20:56:40.364Z,88.77
2022-08-24T20:58:12.807Z,88.57
2022-08-24T20:59:45.654Z,88.92
2022-08-24T21:01:18.798Z,89.14
2022-08-24T21:02:52.229Z,88.83
2022-08-24T21:04:25.655Z,89.37
2022-08-24T21:06:01.482Z,89.46
2022-08-24T21:07:33.762Z,89.46
2022-08-24T21:09:06.760Z,89.18
2022-08-24T21:10:42.807Z,89.39
